Dennisville, New Jersey
Current Conditions -  °F | °C
As of 1:55 PM on Thursday 30 Oct 2014 (Local Time) from KWWD Reporting Station
Clear Clear  
Wind Chill: 57°   Ceiling: Unl
Heat Index: 57°   Visibility: 10mi
Dew Point: 41°   Wind: 8mph
Humidity: 55%   Direction: 300°WNW
Pressure: 30.01"   Gusts: NA
Location:  39.19°N, 74.82°W
Report Text: KWWD 301755Z AUTO 30007KT 260V330 10SM CLR 14/05 A3001 RMK AO1 10140 20110 57010
Loading
Personal Weather Stations






























Interactive Weather Map
Tropical Storm Tracking
New forecast layout! Learn more

10-Day Weather Forecast

Advertisements
Track Severe Weather on mobile